Aérodrome :
LOGIN :

S'inscrire | Disclaimer

   EN    FR    IT 

 










Légende :    VFR   VFR Marginal   IFR   IFR Intensif   IFR Très Intensif
Visi : 
Plafond : 
>= 8 km
>= 3000ft
5 à 8 km
1000 à 3000 ft
1500m à 5 km
500 à 1000 ft
800 à 1500m
200 à 500 ft
< 800m
< 200 ft
Symboles :   Orages  Brouillard  Fortes neiges  Fortes précipitations  Vent > 20 kt
SIGMETs :   Divers  Orages  Givrage  Turbulence  Onde Orograph.  Cendres Volcan.







- Altitude de l'aérodrome : 425 ft
- Code IATA : DTM


EDLW - Dortmund

DERNIER METAR :
  • 201520Z 07013KT 4200 SCT003 BKN006 01/M00 Q1008

METARs EXPIRÉS :
  • 201450Z 07015KT 9999 FEW012 BKN040 02/M01 Q1008
  • 201420Z 07014KT 9999 FEW024 OVC039 03/M01 Q1008
  • 201350Z 08012KT 9999 OVC022 03/M01 Q1009
  • 201320Z 07013KT 9999 OVC021 03/M01 Q1009
  • 201250Z 08017KT 9999 OVC021 03/M01 Q1009

TAF TAF EDLW
Valide du 20 à 12h jusqu'au 21 à 12h UTC


201100Z 2012/2112 07011KT 9999 BKN040
TEMPO 2012/2016 07015G25KT
PROB30
TEMPO 2014/2017 4000 -SNRA
BECMG 2103/2107 07006KT
Pas de NOTAMs connus pour ce terrain.



MET'MAP, la Météo Aéronautique d'un coup d'oeil ! - Copyright ORBIFLY Décembre 2007 - Disclaimer

ORBIFLY MET'MAP TEAM :

Programmation & Développement : Alexandra Zaïnal
Conception & Développement : Baudouin d'Aumeries
Co-Programmation & Développement : Marc-Olivier Méhu
Soutien technique & logistique : Manuel Goepfert

Contact : metmap@orbifly.com




SOURCES & CREDITS :

   NOAA